sensor_id;sensor_type;location;lat;lon;timestamp;P1;durP1;ratioP1;P2;durP2;ratioP2
64065;SDS011;50318;54.760;9.408;2022-11-15T00:01:25;111.18;;;64.03;;
64065;SDS011;50318;54.760;9.408;2022-11-15T00:04:09;116.10;;;64.00;;
64065;SDS011;50318;54.760;9.408;2022-11-15T00:06:54;118.80;;;67.43;;
64065;SDS011;50318;54.760;9.408;2022-11-15T00:09:38;117.35;;;65.82;;
64065;SDS011;50318;54.760;9.408;2022-11-15T00:12:23;115.82;;;65.05;;
64065;SDS011;50318;54.760;9.408;2022-11-15T00:15:07;119.07;;;67.03;;
64065;SDS011;50318;54.760;9.408;2022-11-15T00:17:52;116.72;;;64.93;;
64065;SDS011;50318;54.760;9.408;2022-11-15T00:20:39;120.25;;;66.72;;
64065;SDS011;50318;54.760;9.408;2022-11-15T00:23:24;114.75;;;65.53;;
64065;SDS011;50318;54.760;9.408;2022-11-15T00:26:10;116.32;;;65.03;;
64065;SDS011;50318;54.760;9.408;2022-11-15T00:28:56;110.70;;;63.45;;
64065;SDS011;50318;54.760;9.408;2022-11-15T00:31:40;122.15;;;65.28;;
64065;SDS011;50318;54.760;9.408;2022-11-15T00:34:25;123.30;;;67.97;;
64065;SDS011;50318;54.760;9.408;2022-11-15T00:37:09;123.27;;;67.30;;
64065;SDS011;50318;54.760;9.408;2022-11-15T00:39:53;117.73;;;64.90;;
64065;SDS011;50318;54.760;9.408;2022-11-15T00:42:38;123.85;;;66.78;;
64065;SDS011;50318;54.760;9.408;2022-11-15T00:45:22;117.78;;;66.10;;
64065;SDS011;50318;54.760;9.408;2022-11-15T00:48:08;122.40;;;65.87;;
64065;SDS011;50318;54.760;9.408;2022-11-15T00:50:53;122.07;;;65.95;;
64065;SDS011;50318;54.760;9.408;2022-11-15T00:53:37;129.55;;;68.25;;
64065;SDS011;50318;54.760;9.408;2022-11-15T00:56:22;122.97;;;67.60;;
64065;SDS011;50318;54.760;9.408;2022-11-15T00:59:06;119.32;;;65.70;;
64065;SDS011;50318;54.760;9.408;2022-11-15T01:01:50;132.73;;;70.45;;
64065;SDS011;50318;54.760;9.408;2022-11-15T01:04:35;129.50;;;70.80;;
64065;SDS011;50318;54.760;9.408;2022-11-15T01:07:19;126.25;;;69.80;;
64065;SDS011;50318;54.760;9.408;2022-11-15T01:10:04;126.18;;;70.70;;
64065;SDS011;50318;54.760;9.408;2022-11-15T01:12:49;111.43;;;64.50;;
64065;SDS011;50318;54.760;9.408;2022-11-15T01:15:33;123.00;;;67.15;;
64065;SDS011;50318;54.760;9.408;2022-11-15T01:18:19;118.68;;;65.05;;
64065;SDS011;50318;54.760;9.408;2022-11-15T01:21:04;129.23;;;69.40;;
64065;SDS011;50318;54.760;9.408;2022-11-15T01:23:53;125.32;;;66.53;;
64065;SDS011;50318;54.760;9.408;2022-11-15T01:26:38;129.53;;;69.03;;
64065;SDS011;50318;54.760;9.408;2022-11-15T01:29:23;126.18;;;68.60;;
64065;SDS011;50318;54.760;9.408;2022-11-15T01:32:10;134.10;;;71.17;;
64065;SDS011;50318;54.760;9.408;2022-11-15T01:34:55;146.15;;;75.15;;
64065;SDS011;50318;54.760;9.408;2022-11-15T01:37:39;141.50;;;75.60;;
64065;SDS011;50318;54.760;9.408;2022-11-15T01:40:23;132.77;;;73.03;;
64065;SDS011;50318;54.760;9.408;2022-11-15T01:43:24;131.97;;;71.63;;
64065;SDS011;50318;54.760;9.408;2022-11-15T01:46:28;128.88;;;71.68;;
64065;SDS011;50318;54.760;9.408;2022-11-15T01:49:19;133.57;;;72.15;;
64065;SDS011;50318;54.760;9.408;2022-11-15T01:52:07;133.00;;;71.47;;
64065;SDS011;50318;54.760;9.408;2022-11-15T01:54:59;124.82;;;69.53;;
64065;SDS011;50318;54.760;9.408;2022-11-15T01:57:46;114.35;;;66.95;;
64065;SDS011;50318;54.760;9.408;2022-11-15T02:00:34;113.17;;;66.53;;
64065;SDS011;50318;54.760;9.408;2022-11-15T02:03:18;116.13;;;67.15;;
64065;SDS011;50318;54.760;9.408;2022-11-15T02:06:04;110.80;;;64.50;;
64065;SDS011;50318;54.760;9.408;2022-11-15T02:08:49;113.40;;;64.72;;
64065;SDS011;50318;54.760;9.408;2022-11-15T02:11:34;116.32;;;66.32;;
64065;SDS011;50318;54.760;9.408;2022-11-15T02:14:19;117.57;;;66.65;;
64065;SDS011;50318;54.760;9.408;2022-11-15T02:20:44;115.60;;;65.78;;
64065;SDS011;50318;54.760;9.408;2022-11-15T02:23:52;116.28;;;66.25;;
64065;SDS011;50318;54.760;9.408;2022-11-15T02:34:19;116.00;;;65.30;;
64065;SDS011;50318;54.760;9.408;2022-11-15T02:40:23;108.13;;;63.63;;
64065;SDS011;50318;54.760;9.408;2022-11-15T02:43:27;106.13;;;62.95;;
64065;SDS011;50318;54.760;9.408;2022-11-15T02:46:40;102.00;;;60.92;;
64065;SDS011;50318;54.760;9.408;2022-11-15T02:49:51;101.37;;;59.97;;
64065;SDS011;50318;54.760;9.408;2022-11-15T02:52:37;95.15;;;58.40;;
64065;SDS011;50318;54.760;9.408;2022-11-15T02:55:29;91.47;;;57.80;;
64065;SDS011;50318;54.760;9.408;2022-11-15T03:07:55;86.17;;;53.90;;
64065;SDS011;50318;54.760;9.408;2022-11-15T03:13:58;83.97;;;54.60;;
64065;SDS011;50318;54.760;9.408;2022-11-15T03:17:01;81.00;;;53.63;;
64065;SDS011;50318;54.760;9.408;2022-11-15T03:19:58;78.05;;;52.63;;
64065;SDS011;50318;54.760;9.408;2022-11-15T03:22:46;82.03;;;53.17;;
64065;SDS011;50318;54.760;9.408;2022-11-15T03:25:32;79.32;;;51.63;;
64065;SDS011;50318;54.760;9.408;2022-11-15T03:28:21;78.55;;;51.58;;
64065;SDS011;50318;54.760;9.408;2022-11-15T03:31:09;76.93;;;51.60;;
64065;SDS011;50318;54.760;9.408;2022-11-15T03:34:27;76.47;;;51.17;;
64065;SDS011;50318;54.760;9.408;2022-11-15T03:37:16;75.07;;;50.40;;
64065;SDS011;50318;54.760;9.408;2022-11-15T03:40:04;76.43;;;51.05;;
64065;SDS011;50318;54.760;9.408;2022-11-15T03:45:56;82.25;;;53.42;;
64065;SDS011;50318;54.760;9.408;2022-11-15T03:48:53;81.45;;;52.53;;
64065;SDS011;50318;54.760;9.408;2022-11-15T03:51:44;84.80;;;53.28;;
64065;SDS011;50318;54.760;9.408;2022-11-15T03:54:29;83.22;;;53.78;;
64065;SDS011;50318;54.760;9.408;2022-11-15T03:57:13;86.30;;;54.23;;
64065;SDS011;50318;54.760;9.408;2022-11-15T03:59:58;88.57;;;54.47;;
64065;SDS011;50318;54.760;9.408;2022-11-15T04:02:42;85.47;;;54.20;;
64065;SDS011;50318;54.760;9.408;2022-11-15T04:05:26;89.53;;;55.33;;
64065;SDS011;50318;54.760;9.408;2022-11-15T04:08:11;91.43;;;56.58;;
64065;SDS011;50318;54.760;9.408;2022-11-15T04:10:55;85.57;;;55.20;;
64065;SDS011;50318;54.760;9.408;2022-11-15T04:13:40;90.72;;;56.33;;
64065;SDS011;50318;54.760;9.408;2022-11-15T04:16:24;94.97;;;58.65;;
64065;SDS011;50318;54.760;9.408;2022-11-15T04:19:08;90.78;;;56.25;;
64065;SDS011;50318;54.760;9.408;2022-11-15T04:22:11;94.60;;;58.47;;
64065;SDS011;50318;54.760;9.408;2022-11-15T04:25:15;92.47;;;57.10;;
64065;SDS011;50318;54.760;9.408;2022-11-15T04:27:59;96.13;;;58.23;;
64065;SDS011;50318;54.760;9.408;2022-11-15T04:30:44;97.20;;;59.67;;
64065;SDS011;50318;54.760;9.408;2022-11-15T04:33:29;94.60;;;59.03;;
64065;SDS011;50318;54.760;9.408;2022-11-15T04:36:13;94.38;;;58.15;;
64065;SDS011;50318;54.760;9.408;2022-11-15T04:39:16;97.03;;;59.92;;
64065;SDS011;50318;54.760;9.408;2022-11-15T04:42:00;98.75;;;59.92;;
64065;SDS011;50318;54.760;9.408;2022-11-15T04:44:44;99.68;;;60.35;;
64065;SDS011;50318;54.760;9.408;2022-11-15T04:47:29;99.25;;;61.00;;
64065;SDS011;50318;54.760;9.408;2022-11-15T04:50:13;98.13;;;60.30;;
64065;SDS011;50318;54.760;9.408;2022-11-15T04:52:58;101.07;;;61.25;;
64065;SDS011;50318;54.760;9.408;2022-11-15T04:55:45;103.32;;;60.53;;
64065;SDS011;50318;54.760;9.408;2022-11-15T04:58:30;98.03;;;59.90;;
64065;SDS011;50318;54.760;9.408;2022-11-15T05:01:14;101.03;;;60.40;;
64065;SDS011;50318;54.760;9.408;2022-11-15T05:04:08;107.32;;;63.22;;
64065;SDS011;50318;54.760;9.408;2022-11-15T05:07:04;100.53;;;61.05;;
64065;SDS011;50318;54.760;9.408;2022-11-15T05:09:49;102.53;;;60.80;;
64065;SDS011;50318;54.760;9.408;2022-11-15T05:12:33;101.97;;;60.95;;
64065;SDS011;50318;54.760;9.408;2022-11-15T05:15:18;107.30;;;62.05;;
64065;SDS011;50318;54.760;9.408;2022-11-15T05:18:03;98.38;;;61.55;;
64065;SDS011;50318;54.760;9.408;2022-11-15T05:20:47;105.43;;;61.72;;
64065;SDS011;50318;54.760;9.408;2022-11-15T05:23:32;103.88;;;62.30;;
64065;SDS011;50318;54.760;9.408;2022-11-15T05:26:16;99.55;;;60.97;;
64065;SDS011;50318;54.760;9.408;2022-11-15T05:29:02;101.88;;;61.10;;
64065;SDS011;50318;54.760;9.408;2022-11-15T05:31:47;102.05;;;61.30;;
64065;SDS011;50318;54.760;9.408;2022-11-15T05:34:32;99.47;;;60.90;;
64065;SDS011;50318;54.760;9.408;2022-11-15T05:37:16;104.82;;;62.75;;
64065;SDS011;50318;54.760;9.408;2022-11-15T05:40:01;105.13;;;62.55;;
64065;SDS011;50318;54.760;9.408;2022-11-15T05:42:46;98.23;;;61.60;;
64065;SDS011;50318;54.760;9.408;2022-11-15T05:45:31;104.63;;;62.90;;
64065;SDS011;50318;54.760;9.408;2022-11-15T05:48:17;103.25;;;61.45;;
64065;SDS011;50318;54.760;9.408;2022-11-15T05:51:01;104.03;;;60.95;;
64065;SDS011;50318;54.760;9.408;2022-11-15T05:53:47;106.80;;;61.37;;
64065;SDS011;50318;54.760;9.408;2022-11-15T05:56:33;103.57;;;61.60;;
64065;SDS011;50318;54.760;9.408;2022-11-15T05:59:17;104.03;;;62.28;;
64065;SDS011;50318;54.760;9.408;2022-11-15T06:02:02;103.63;;;61.45;;
64065;SDS011;50318;54.760;9.408;2022-11-15T06:04:46;99.93;;;61.07;;
64065;SDS011;50318;54.760;9.408;2022-11-15T06:07:30;104.18;;;62.60;;
64065;SDS011;50318;54.760;9.408;2022-11-15T06:10:14;105.05;;;61.72;;
64065;SDS011;50318;54.760;9.408;2022-11-15T06:13:02;93.80;;;59.20;;
64065;SDS011;50318;54.760;9.408;2022-11-15T06:15:56;102.70;;;60.57;;
64065;SDS011;50318;54.760;9.408;2022-11-15T06:18:41;103.10;;;61.67;;
64065;SDS011;50318;54.760;9.408;2022-11-15T06:21:25;98.70;;;61.00;;
64065;SDS011;50318;54.760;9.408;2022-11-15T06:24:11;97.95;;;59.45;;
64065;SDS011;50318;54.760;9.408;2022-11-15T06:26:56;100.93;;;60.08;;
64065;SDS011;50318;54.760;9.408;2022-11-15T06:29:41;98.47;;;59.63;;
64065;SDS011;50318;54.760;9.408;2022-11-15T06:32:25;100.67;;;60.87;;
64065;SDS011;50318;54.760;9.408;2022-11-15T06:35:10;100.03;;;61.70;;
64065;SDS011;50318;54.760;9.408;2022-11-15T06:37:55;94.70;;;58.78;;
64065;SDS011;50318;54.760;9.408;2022-11-15T06:40:39;98.10;;;60.53;;
64065;SDS011;50318;54.760;9.408;2022-11-15T06:43:24;101.97;;;62.75;;
64065;SDS011;50318;54.760;9.408;2022-11-15T06:46:08;97.38;;;60.75;;
64065;SDS011;50318;54.760;9.408;2022-11-15T06:48:53;94.00;;;59.10;;
64065;SDS011;50318;54.760;9.408;2022-11-15T06:51:54;90.80;;;57.53;;
64065;SDS011;50318;54.760;9.408;2022-11-15T06:54:39;87.57;;;56.47;;
64065;SDS011;50318;54.760;9.408;2022-11-15T06:57:26;86.13;;;56.20;;
64065;SDS011;50318;54.760;9.408;2022-11-15T07:00:11;78.97;;;54.10;;
64065;SDS011;50318;54.760;9.408;2022-11-15T07:02:59;81.17;;;54.23;;
64065;SDS011;50318;54.760;9.408;2022-11-15T07:05:53;84.22;;;54.22;;
64065;SDS011;50318;54.760;9.408;2022-11-15T07:08:39;78.13;;;52.50;;
64065;SDS011;50318;54.760;9.408;2022-11-15T07:11:25;77.07;;;51.58;;
64065;SDS011;50318;54.760;9.408;2022-11-15T07:14:09;75.30;;;49.50;;
64065;SDS011;50318;54.760;9.408;2022-11-15T07:16:54;72.47;;;48.88;;
64065;SDS011;50318;54.760;9.408;2022-11-15T07:19:38;70.57;;;48.70;;
64065;SDS011;50318;54.760;9.408;2022-11-15T07:22:23;69.65;;;48.28;;
64065;SDS011;50318;54.760;9.408;2022-11-15T07:25:08;69.78;;;48.55;;
64065;SDS011;50318;54.760;9.408;2022-11-15T07:27:57;69.15;;;48.15;;
64065;SDS011;50318;54.760;9.408;2022-11-15T07:30:42;73.22;;;49.28;;
64065;SDS011;50318;54.760;9.408;2022-11-15T07:33:27;66.95;;;47.20;;
64065;SDS011;50318;54.760;9.408;2022-11-15T07:36:11;68.53;;;47.60;;
64065;SDS011;50318;54.760;9.408;2022-11-15T07:38:56;66.35;;;46.53;;
64065;SDS011;50318;54.760;9.408;2022-11-15T07:41:40;64.47;;;45.13;;
64065;SDS011;50318;54.760;9.408;2022-11-15T07:44:25;70.20;;;47.55;;
64065;SDS011;50318;54.760;9.408;2022-11-15T07:47:09;69.05;;;46.42;;
64065;SDS011;50318;54.760;9.408;2022-11-15T07:49:53;64.57;;;45.57;;
64065;SDS011;50318;54.760;9.408;2022-11-15T07:52:57;63.80;;;44.80;;
64065;SDS011;50318;54.760;9.408;2022-11-15T07:56:05;64.00;;;44.70;;
64065;SDS011;50318;54.760;9.408;2022-11-15T07:59:06;67.60;;;45.13;;
64065;SDS011;50318;54.760;9.408;2022-11-15T08:01:50;70.25;;;45.45;;
64065;SDS011;50318;54.760;9.408;2022-11-15T08:04:34;75.20;;;45.92;;
64065;SDS011;50318;54.760;9.408;2022-11-15T08:07:19;76.30;;;47.45;;
64065;SDS011;50318;54.760;9.408;2022-11-15T08:10:04;77.72;;;47.33;;
64065;SDS011;50318;54.760;9.408;2022-11-15T08:12:57;80.57;;;47.37;;
64065;SDS011;50318;54.760;9.408;2022-11-15T08:15:42;88.93;;;48.22;;
64065;SDS011;50318;54.760;9.408;2022-11-15T08:18:27;80.88;;;45.50;;
64065;SDS011;50318;54.760;9.408;2022-11-15T08:21:13;70.75;;;44.17;;
64065;SDS011;50318;54.760;9.408;2022-11-15T08:24:34;63.28;;;42.88;;
64065;SDS011;50318;54.760;9.408;2022-11-15T08:27:18;61.33;;;43.30;;
64065;SDS011;50318;54.760;9.408;2022-11-15T08:30:03;68.22;;;43.95;;
64065;SDS011;50318;54.760;9.408;2022-11-15T08:32:48;62.15;;;42.80;;
64065;SDS011;50318;54.760;9.408;2022-11-15T08:35:33;60.65;;;43.60;;
64065;SDS011;50318;54.760;9.408;2022-11-15T08:38:17;64.85;;;44.13;;
64065;SDS011;50318;54.760;9.408;2022-11-15T08:41:03;59.70;;;42.38;;
64065;SDS011;50318;54.760;9.408;2022-11-15T08:43:48;57.10;;;40.90;;
64065;SDS011;50318;54.760;9.408;2022-11-15T08:46:55;60.83;;;42.65;;
64065;SDS011;50318;54.760;9.408;2022-11-15T08:49:40;60.38;;;41.80;;
64065;SDS011;50318;54.760;9.408;2022-11-15T08:52:25;58.55;;;41.55;;
64065;SDS011;50318;54.760;9.408;2022-11-15T08:55:09;58.53;;;41.27;;
64065;SDS011;50318;54.760;9.408;2022-11-15T08:57:53;56.50;;;40.83;;
64065;SDS011;50318;54.760;9.408;2022-11-15T09:00:41;57.77;;;41.47;;
64065;SDS011;50318;54.760;9.408;2022-11-15T09:03:25;58.58;;;41.42;;
64065;SDS011;50318;54.760;9.408;2022-11-15T09:06:10;58.17;;;41.07;;
64065;SDS011;50318;54.760;9.408;2022-11-15T09:08:55;58.25;;;40.25;;
64065;SDS011;50318;54.760;9.408;2022-11-15T09:11:39;55.92;;;40.30;;
64065;SDS011;50318;54.760;9.408;2022-11-15T09:14:24;56.22;;;39.42;;
64065;SDS011;50318;54.760;9.408;2022-11-15T09:17:17;56.83;;;39.00;;
64065;SDS011;50318;54.760;9.408;2022-11-15T09:20:01;55.13;;;39.15;;
64065;SDS011;50318;54.760;9.408;2022-11-15T09:22:46;51.90;;;37.80;;
64065;SDS011;50318;54.760;9.408;2022-11-15T09:25:40;54.70;;;38.67;;
64065;SDS011;50318;54.760;9.408;2022-11-15T09:28:24;49.65;;;36.10;;
64065;SDS011;50318;54.760;9.408;2022-11-15T09:31:08;52.35;;;37.05;;
64065;SDS011;50318;54.760;9.408;2022-11-15T09:33:53;50.40;;;36.67;;
64065;SDS011;50318;54.760;9.408;2022-11-15T09:36:37;48.47;;;35.55;;
64065;SDS011;50318;54.760;9.408;2022-11-15T09:39:43;46.97;;;34.72;;
64065;SDS011;50318;54.760;9.408;2022-11-15T09:48:48;45.33;;;33.87;;
64065;SDS011;50318;54.760;9.408;2022-11-15T09:51:33;46.63;;;33.85;;
64065;SDS011;50318;54.760;9.408;2022-11-15T09:56:35;47.90;;;34.20;;
64065;SDS011;50318;54.760;9.408;2022-11-15T10:04:22;46.60;;;33.58;;
64065;SDS011;50318;54.760;9.408;2022-11-15T10:07:34;46.28;;;33.80;;
64065;SDS011;50318;54.760;9.408;2022-11-15T10:09:44;43.97;;;32.53;;
64065;SDS011;50318;54.760;9.408;2022-11-15T10:12:12;46.13;;;32.90;;
64065;SDS011;50318;54.760;9.408;2022-11-15T10:14:39;42.45;;;32.22;;
64065;SDS011;50318;54.760;9.408;2022-11-15T10:27:42;43.03;;;31.88;;
64065;SDS011;50318;54.760;9.408;2022-11-15T10:30:10;43.22;;;31.73;;
64065;SDS011;50318;54.760;9.408;2022-11-15T10:32:42;41.30;;;31.85;;
64065;SDS011;50318;54.760;9.408;2022-11-15T10:35:20;43.78;;;31.90;;
64065;SDS011;50318;54.760;9.408;2022-11-15T10:37:51;41.72;;;30.92;;
64065;SDS011;50318;54.760;9.408;2022-11-15T10:40:29;42.38;;;31.65;;
64065;SDS011;50318;54.760;9.408;2022-11-15T10:45:36;40.90;;;31.17;;
64065;SDS011;50318;54.760;9.408;2022-11-15T10:50:47;37.47;;;29.57;;
64065;SDS011;50318;54.760;9.408;2022-11-15T10:53:17;40.72;;;30.65;;
64065;SDS011;50318;54.760;9.408;2022-11-15T10:55:46;40.15;;;29.60;;
64065;SDS011;50318;54.760;9.408;2022-11-15T11:00:55;39.13;;;29.58;;
64065;SDS011;50318;54.760;9.408;2022-11-15T11:03:33;38.45;;;29.48;;
64065;SDS011;50318;54.760;9.408;2022-11-15T11:06:11;37.77;;;29.43;;
64065;SDS011;50318;54.760;9.408;2022-11-15T11:08:53;40.25;;;29.77;;
64065;SDS011;50318;54.760;9.408;2022-11-15T11:11:20;36.85;;;29.40;;
64065;SDS011;50318;54.760;9.408;2022-11-15T11:13:46;41.03;;;30.48;;
64065;SDS011;50318;54.760;9.408;2022-11-15T11:35:12;41.42;;;30.55;;
64065;SDS011;50318;54.760;9.408;2022-11-15T11:44:01;37.80;;;29.60;;
64065;SDS011;50318;54.760;9.408;2022-11-15T11:49:41;39.13;;;29.73;;
64065;SDS011;50318;54.760;9.408;2022-11-15T11:52:11;39.05;;;29.85;;
64065;SDS011;50318;54.760;9.408;2022-11-15T11:54:57;38.55;;;29.90;;
64065;SDS011;50318;54.760;9.408;2022-11-15T12:00:31;38.05;;;29.70;;
64065;SDS011;50318;54.760;9.408;2022-11-15T12:03:24;42.37;;;29.90;;
64065;SDS011;50318;54.760;9.408;2022-11-15T12:06:42;37.08;;;28.70;;
64065;SDS011;50318;54.760;9.408;2022-11-15T12:14:33;40.15;;;29.83;;
64065;SDS011;50318;54.760;9.408;2022-11-15T12:17:04;40.70;;;29.58;;
64065;SDS011;50318;54.760;9.408;2022-11-15T12:19:30;38.50;;;29.40;;
64065;SDS011;50318;54.760;9.408;2022-11-15T12:22:03;38.35;;;29.83;;
64065;SDS011;50318;54.760;9.408;2022-11-15T12:27:45;40.13;;;29.10;;
64065;SDS011;50318;54.760;9.408;2022-11-15T12:30:17;34.60;;;27.52;;
64065;SDS011;50318;54.760;9.408;2022-11-15T12:32:56;36.47;;;28.58;;
64065;SDS011;50318;54.760;9.408;2022-11-15T12:35:25;38.43;;;28.53;;
64065;SDS011;50318;54.760;9.408;2022-11-15T12:37:52;37.10;;;28.67;;
64065;SDS011;50318;54.760;9.408;2022-11-15T12:45:56;37.30;;;28.13;;
64065;SDS011;50318;54.760;9.408;2022-11-15T12:51:00;38.15;;;27.35;;
64065;SDS011;50318;54.760;9.408;2022-11-15T12:53:30;37.22;;;28.60;;
64065;SDS011;50318;54.760;9.408;2022-11-15T12:58:41;34.13;;;27.20;;
64065;SDS011;50318;54.760;9.408;2022-11-15T13:06:51;36.50;;;26.67;;
64065;SDS011;50318;54.760;9.408;2022-11-15T13:14:46;38.28;;;28.77;;
64065;SDS011;50318;54.760;9.408;2022-11-15T13:35:50;33.17;;;26.35;;
64065;SDS011;50318;54.760;9.408;2022-11-15T13:38:29;34.35;;;26.42;;
64065;SDS011;50318;54.760;9.408;2022-11-15T13:40:58;34.10;;;26.90;;
64065;SDS011;50318;54.760;9.408;2022-11-15T13:46:06;33.78;;;25.90;;
64065;SDS011;50318;54.760;9.408;2022-11-15T13:48:42;33.47;;;26.70;;
64065;SDS011;50318;54.760;9.408;2022-11-15T13:56:53;34.07;;;26.90;;
64065;SDS011;50318;54.760;9.408;2022-11-15T13:59:30;35.87;;;27.77;;
64065;SDS011;50318;54.760;9.408;2022-11-15T14:02:18;35.28;;;26.73;;
64065;SDS011;50318;54.760;9.408;2022-11-15T14:04:49;35.20;;;27.30;;
64065;SDS011;50318;54.760;9.408;2022-11-15T14:07:18;34.75;;;26.73;;
64065;SDS011;50318;54.760;9.408;2022-11-15T14:09:45;34.47;;;26.60;;
64065;SDS011;50318;54.760;9.408;2022-11-15T14:15:17;34.97;;;26.23;;
64065;SDS011;50318;54.760;9.408;2022-11-15T14:17:54;33.20;;;26.10;;
64065;SDS011;50318;54.760;9.408;2022-11-15T14:20:32;32.17;;;25.65;;
64065;SDS011;50318;54.760;9.408;2022-11-15T14:23:04;33.40;;;26.23;;
64065;SDS011;50318;54.760;9.408;2022-11-15T14:25:30;33.67;;;25.83;;
64065;SDS011;50318;54.760;9.408;2022-11-15T14:28:12;34.85;;;26.20;;
64065;SDS011;50318;54.760;9.408;2022-11-15T14:30:53;33.10;;;26.13;;
64065;SDS011;50318;54.760;9.408;2022-11-15T14:35:50;35.58;;;26.75;;
64065;SDS011;50318;54.760;9.408;2022-11-15T14:38:26;34.70;;;27.13;;
64065;SDS011;50318;54.760;9.408;2022-11-15T14:40:53;35.25;;;26.98;;
64065;SDS011;50318;54.760;9.408;2022-11-15T14:43:20;34.00;;;26.25;;
64065;SDS011;50318;54.760;9.408;2022-11-15T14:45:46;33.13;;;25.80;;
64065;SDS011;50318;54.760;9.408;2022-11-15T14:48:12;35.60;;;26.25;;
64065;SDS011;50318;54.760;9.408;2022-11-15T14:50:38;36.20;;;26.88;;
64065;SDS011;50318;54.760;9.408;2022-11-15T14:53:19;35.22;;;27.00;;
64065;SDS011;50318;54.760;9.408;2022-11-15T14:55:46;34.83;;;26.20;;
64065;SDS011;50318;54.760;9.408;2022-11-15T14:58:16;34.67;;;26.70;;
64065;SDS011;50318;54.760;9.408;2022-11-15T15:00:42;35.75;;;26.95;;
64065;SDS011;50318;54.760;9.408;2022-11-15T15:03:08;33.95;;;26.05;;
64065;SDS011;50318;54.760;9.408;2022-11-15T15:05:38;35.43;;;26.80;;
64065;SDS011;50318;54.760;9.408;2022-11-15T15:08:06;34.42;;;26.63;;
64065;SDS011;50318;54.760;9.408;2022-11-15T15:10:36;33.40;;;25.57;;
64065;SDS011;50318;54.760;9.408;2022-11-15T15:13:05;34.13;;;26.63;;
64065;SDS011;50318;54.760;9.408;2022-11-15T15:15:35;34.47;;;26.75;;
64065;SDS011;50318;54.760;9.408;2022-11-15T15:18:02;37.70;;;28.00;;
64065;SDS011;50318;54.760;9.408;2022-11-15T15:20:31;35.90;;;27.40;;
64065;SDS011;50318;54.760;9.408;2022-11-15T15:23:30;36.78;;;28.00;;
64065;SDS011;50318;54.760;9.408;2022-11-15T15:25:56;39.20;;;28.77;;
64065;SDS011;50318;54.760;9.408;2022-11-15T15:28:22;36.80;;;28.92;;
64065;SDS011;50318;54.760;9.408;2022-11-15T15:30:48;39.57;;;29.13;;
64065;SDS011;50318;54.760;9.408;2022-11-15T15:33:15;42.13;;;29.90;;
64065;SDS011;50318;54.760;9.408;2022-11-15T15:35:41;40.63;;;29.85;;
64065;SDS011;50318;54.760;9.408;2022-11-15T15:38:28;40.03;;;30.52;;
64065;SDS011;50318;54.760;9.408;2022-11-15T15:40:54;43.27;;;31.17;;
64065;SDS011;50318;54.760;9.408;2022-11-15T15:43:20;40.80;;;30.52;;
64065;SDS011;50318;54.760;9.408;2022-11-15T15:45:46;42.17;;;30.83;;
64065;SDS011;50318;54.760;9.408;2022-11-15T15:48:13;40.75;;;30.23;;
64065;SDS011;50318;54.760;9.408;2022-11-15T15:50:58;40.47;;;31.20;;
64065;SDS011;50318;54.760;9.408;2022-11-15T15:53:24;41.47;;;31.63;;
64065;SDS011;50318;54.760;9.408;2022-11-15T15:55:50;43.60;;;30.90;;
64065;SDS011;50318;54.760;9.408;2022-11-15T15:58:32;41.28;;;30.70;;
64065;SDS011;50318;54.760;9.408;2022-11-15T16:00:58;43.07;;;31.43;;
64065;SDS011;50318;54.760;9.408;2022-11-15T16:03:48;41.92;;;31.50;;
64065;SDS011;50318;54.760;9.408;2022-11-15T16:09:15;41.10;;;31.30;;
64065;SDS011;50318;54.760;9.408;2022-11-15T16:11:43;40.90;;;31.93;;
64065;SDS011;50318;54.760;9.408;2022-11-15T16:14:10;43.83;;;32.63;;
64065;SDS011;50318;54.760;9.408;2022-11-15T16:16:36;46.80;;;32.78;;
64065;SDS011;50318;54.760;9.408;2022-11-15T16:19:03;49.42;;;34.65;;
64065;SDS011;50318;54.760;9.408;2022-11-15T16:21:29;46.90;;;34.38;;
64065;SDS011;50318;54.760;9.408;2022-11-15T16:23:55;50.10;;;35.13;;
64065;SDS011;50318;54.760;9.408;2022-11-15T16:26:22;50.97;;;36.27;;
64065;SDS011;50318;54.760;9.408;2022-11-15T16:28:50;48.33;;;36.53;;
64065;SDS011;50318;54.760;9.408;2022-11-15T16:31:16;53.08;;;38.13;;
64065;SDS011;50318;54.760;9.408;2022-11-15T16:33:45;50.83;;;36.20;;
64065;SDS011;50318;54.760;9.408;2022-11-15T16:38:45;53.90;;;38.10;;
64065;SDS011;50318;54.760;9.408;2022-11-15T16:41:11;53.65;;;38.13;;
64065;SDS011;50318;54.760;9.408;2022-11-15T16:43:37;56.95;;;39.30;;
64065;SDS011;50318;54.760;9.408;2022-11-15T16:46:42;52.90;;;38.40;;
64065;SDS011;50318;54.760;9.408;2022-11-15T16:49:14;54.77;;;39.00;;
64065;SDS011;50318;54.760;9.408;2022-11-15T16:51:40;56.70;;;39.97;;
64065;SDS011;50318;54.760;9.408;2022-11-15T16:54:06;54.50;;;38.73;;
64065;SDS011;50318;54.760;9.408;2022-11-15T16:56:33;54.47;;;39.17;;
64065;SDS011;50318;54.760;9.408;2022-11-15T16:58:59;56.33;;;39.45;;
64065;SDS011;50318;54.760;9.408;2022-11-15T17:01:26;55.00;;;39.03;;
64065;SDS011;50318;54.760;9.408;2022-11-15T17:03:55;56.13;;;40.00;;
64065;SDS011;50318;54.760;9.408;2022-11-15T17:06:24;58.17;;;41.07;;
64065;SDS011;50318;54.760;9.408;2022-11-15T17:08:51;57.35;;;40.63;;
64065;SDS011;50318;54.760;9.408;2022-11-15T17:11:18;58.38;;;41.55;;
64065;SDS011;50318;54.760;9.408;2022-11-15T17:13:45;62.15;;;42.38;;
64065;SDS011;50318;54.760;9.408;2022-11-15T17:16:12;54.67;;;38.73;;
64065;SDS011;50318;54.760;9.408;2022-11-15T17:18:40;60.45;;;42.38;;
64065;SDS011;50318;54.760;9.408;2022-11-15T17:21:15;58.63;;;41.65;;
64065;SDS011;50318;54.760;9.408;2022-11-15T17:23:43;57.22;;;42.03;;
64065;SDS011;50318;54.760;9.408;2022-11-15T17:26:10;60.17;;;41.93;;
64065;SDS011;50318;54.760;9.408;2022-11-15T17:28:37;54.35;;;37.55;;
64065;SDS011;50318;54.760;9.408;2022-11-15T17:31:06;60.25;;;41.78;;
64065;SDS011;50318;54.760;9.408;2022-11-15T17:33:33;60.30;;;41.43;;
64065;SDS011;50318;54.760;9.408;2022-11-15T17:36:00;61.95;;;42.92;;
64065;SDS011;50318;54.760;9.408;2022-11-15T17:38:27;63.45;;;42.70;;
64065;SDS011;50318;54.760;9.408;2022-11-15T17:41:03;61.45;;;42.90;;
64065;SDS011;50318;54.760;9.408;2022-11-15T17:43:31;59.88;;;42.78;;
64065;SDS011;50318;54.760;9.408;2022-11-15T17:46:17;62.50;;;43.50;;
64065;SDS011;50318;54.760;9.408;2022-11-15T17:48:45;61.53;;;42.13;;
64065;SDS011;50318;54.760;9.408;2022-11-15T17:51:17;66.05;;;45.95;;
64065;SDS011;50318;54.760;9.408;2022-11-15T17:53:47;63.45;;;44.60;;
64065;SDS011;50318;54.760;9.408;2022-11-15T17:56:15;64.65;;;45.17;;
64065;SDS011;50318;54.760;9.408;2022-11-15T17:58:50;66.03;;;44.80;;
64065;SDS011;50318;54.760;9.408;2022-11-15T18:03:45;71.28;;;48.25;;
64065;SDS011;50318;54.760;9.408;2022-11-15T18:06:12;71.30;;;47.80;;
64065;SDS011;50318;54.760;9.408;2022-11-15T18:08:39;69.10;;;48.45;;
64065;SDS011;50318;54.760;9.408;2022-11-15T18:13:40;66.97;;;47.30;;
64065;SDS011;50318;54.760;9.408;2022-11-15T18:16:10;69.83;;;48.63;;
64065;SDS011;50318;54.760;9.408;2022-11-15T18:18:38;68.23;;;48.27;;
64065;SDS011;50318;54.760;9.408;2022-11-15T18:21:06;70.90;;;49.80;;
64065;SDS011;50318;54.760;9.408;2022-11-15T18:23:36;67.47;;;47.97;;